sensor_id;sensor_type;location;lat;lon;timestamp;pressure;altitude;pressure_sealevel;temperature;humidity
21504;BME280;10913;51.992;9.228;2023-02-16T00:01:44;101233.03;;;2.71;100.00
21504;BME280;10913;51.992;9.228;2023-02-16T00:04:19;101239.13;;;2.72;100.00
21504;BME280;10913;51.992;9.228;2023-02-16T00:06:46;101240.84;;;2.71;100.00
21504;BME280;10913;51.992;9.228;2023-02-16T00:09:11;101233.78;;;2.69;100.00
21504;BME280;10913;51.992;9.228;2023-02-16T00:11:37;101239.00;;;2.69;100.00
21504;BME280;10913;51.992;9.228;2023-02-16T00:14:22;101235.44;;;2.67;100.00
21504;BME280;10913;51.992;9.228;2023-02-16T00:16:51;101235.44;;;2.67;100.00
21504;BME280;10913;51.992;9.228;2023-02-16T00:19:28;101229.28;;;2.65;100.00
21504;BME280;10913;51.992;9.228;2023-02-16T00:21:57;101227.38;;;2.61;100.00
21504;BME280;10913;51.992;9.228;2023-02-16T00:24:24;101234.31;;;2.60;100.00
21504;BME280;10913;51.992;9.228;2023-02-16T00:26:51;101234.28;;;2.59;100.00
21504;BME280;10913;51.992;9.228;2023-02-16T00:29:32;101241.13;;;2.57;100.00
21504;BME280;10913;51.992;9.228;2023-02-16T00:31:59;101225.50;;;2.57;100.00
21504;BME280;10913;51.992;9.228;2023-02-16T00:34:36;101225.50;;;2.57;100.00
21504;BME280;10913;51.992;9.228;2023-02-16T00:37:10;101229.81;;;2.56;100.00
21504;BME280;10913;51.992;9.228;2023-02-16T00:39:37;101220.28;;;2.57;100.00
21504;BME280;10913;51.992;9.228;2023-02-16T00:44:41;101217.59;;;2.55;100.00
21504;BME280;10913;51.992;9.228;2023-02-16T00:47:19;101223.59;;;2.53;100.00
21504;BME280;10913;51.992;9.228;2023-02-16T00:49:46;101216.78;;;2.56;100.00
21504;BME280;10913;51.992;9.228;2023-02-16T00:54:41;101212.19;;;2.51;100.00
21504;BME280;10913;51.992;9.228;2023-02-16T00:57:08;101200.81;;;2.49;100.00
21504;BME280;10913;51.992;9.228;2023-02-16T00:59:40;101196.34;;;2.46;100.00
21504;BME280;10913;51.992;9.228;2023-02-16T01:02:05;101204.88;;;2.42;100.00
21504;BME280;10913;51.992;9.228;2023-02-16T01:04:31;101203.06;;;2.39;100.00
21504;BME280;10913;51.992;9.228;2023-02-16T01:06:56;101196.22;;;2.43;100.00
21504;BME280;10913;51.992;9.228;2023-02-16T01:09:40;101193.50;;;2.40;100.00
21504;BME280;10913;51.992;9.228;2023-02-16T01:12:24;101190.72;;;2.35;100.00
21504;BME280;10913;51.992;9.228;2023-02-16T01:14:52;101194.03;;;2.31;100.00
21504;BME280;10913;51.992;9.228;2023-02-16T01:17:18;101192.25;;;2.30;100.00
21504;BME280;10913;51.992;9.228;2023-02-16T01:19:44;101186.97;;;2.29;100.00
21504;BME280;10913;51.992;9.228;2023-02-16T01:22:09;101184.28;;;2.27;100.00
21504;BME280;10913;51.992;9.228;2023-02-16T01:24:34;101196.44;;;2.27;100.00
21504;BME280;10913;51.992;9.228;2023-02-16T01:27:00;101195.53;;;2.26;100.00
21504;BME280;10913;51.992;9.228;2023-02-16T01:29:25;101193.81;;;2.27;100.00
21504;BME280;10913;51.992;9.228;2023-02-16T01:31:50;101193.81;;;2.27;100.00
21504;BME280;10913;51.992;9.228;2023-02-16T01:34:16;101193.81;;;2.27;100.00
21504;BME280;10913;51.992;9.228;2023-02-16T01:36:44;101202.47;;;2.26;100.00
21504;BME280;10913;51.992;9.228;2023-02-16T01:39:16;101186.84;;;2.26;100.00
21504;BME280;10913;51.992;9.228;2023-02-16T01:44:50;101197.25;;;2.26;100.00
21504;BME280;10913;51.992;9.228;2023-02-16T01:47:33;101194.59;;;2.24;100.00
21504;BME280;10913;51.992;9.228;2023-02-16T01:50:14;101189.25;;;2.21;100.00
21504;BME280;10913;51.992;9.228;2023-02-16T01:53:32;101192.69;;;2.20;100.00
21504;BME280;10913;51.992;9.228;2023-02-16T01:55:42;101190.94;;;2.19;100.00
21504;BME280;10913;51.992;9.228;2023-02-16T02:03:19;101177.63;;;2.13;100.00
21504;BME280;10913;51.992;9.228;2023-02-16T02:06:08;101182.72;;;2.10;100.00
21504;BME280;10913;51.992;9.228;2023-02-16T02:13:45;101176.81;;;1.93;100.00
21504;BME280;10913;51.992;9.228;2023-02-16T02:16:16;101177.56;;;1.91;100.00
21504;BME280;10913;51.992;9.228;2023-02-16T02:18:41;101179.16;;;1.87;100.00
21504;BME280;10913;51.992;9.228;2023-02-16T02:21:34;101172.91;;;1.84;100.00
21504;BME280;10913;51.992;9.228;2023-02-16T02:27:07;101172.47;;;1.73;100.00
21504;BME280;10913;51.992;9.228;2023-02-16T02:43:06;101158.44;;;1.50;100.00
21504;BME280;10913;51.992;9.228;2023-02-16T02:45:41;101158.31;;;1.47;100.00
21504;BME280;10913;51.992;9.228;2023-02-16T02:48:09;101161.66;;;1.45;100.00
21504;BME280;10913;51.992;9.228;2023-02-16T02:50:45;101156.31;;;1.42;100.00
21504;BME280;10913;51.992;9.228;2023-02-16T02:53:30;101154.50;;;1.39;100.00
21504;BME280;10913;51.992;9.228;2023-02-16T02:55:58;101155.31;;;1.38;100.00
21504;BME280;10913;51.992;9.228;2023-02-16T02:58:45;101156.16;;;1.37;100.00
21504;BME280;10913;51.992;9.228;2023-02-16T03:01:37;101148.34;;;1.37;100.00
21504;BME280;10913;51.992;9.228;2023-02-16T03:04:07;101147.31;;;1.33;100.00
21504;BME280;10913;51.992;9.228;2023-02-16T03:06:39;101149.84;;;1.32;100.00
21504;BME280;10913;51.992;9.228;2023-02-16T03:09:10;101147.09;;;1.29;100.00
21504;BME280;10913;51.992;9.228;2023-02-16T03:11:37;101146.97;;;1.26;100.00
21504;BME280;10913;51.992;9.228;2023-02-16T03:14:27;101149.50;;;1.24;100.00
21504;BME280;10913;51.992;9.228;2023-02-16T03:17:00;101158.19;;;1.25;100.00
21504;BME280;10913;51.992;9.228;2023-02-16T03:19:47;101160.03;;;1.27;100.00
21504;BME280;10913;51.992;9.228;2023-02-16T03:22:33;101166.97;;;1.27;100.00
21504;BME280;10913;51.992;9.228;2023-02-16T03:25:18;101159.16;;;1.27;100.00
21504;BME280;10913;51.992;9.228;2023-02-16T03:28:05;101156.41;;;1.24;100.00
21504;BME280;10913;51.992;9.228;2023-02-16T03:30:51;101159.00;;;1.24;100.00
21504;BME280;10913;51.992;9.228;2023-02-16T03:33:19;101158.13;;;1.23;100.00
21504;BME280;10913;51.992;9.228;2023-02-16T03:35:45;101166.75;;;1.22;100.00
21504;BME280;10913;51.992;9.228;2023-02-16T03:38:11;101156.28;;;1.21;100.00
21504;BME280;10913;51.992;9.228;2023-02-16T03:40:37;101156.22;;;1.19;100.00
21504;BME280;10913;51.992;9.228;2023-02-16T03:43:07;101159.59;;;1.17;100.00
21504;BME280;10913;51.992;9.228;2023-02-16T03:45:35;101157.88;;;1.17;100.00
21504;BME280;10913;51.992;9.228;2023-02-16T03:48:01;101169.28;;;1.21;100.00
21504;BME280;10913;51.992;9.228;2023-02-16T03:50:27;101160.66;;;1.22;100.00
21504;BME280;10913;51.992;9.228;2023-02-16T03:52:54;101162.31;;;1.20;100.00
21504;BME280;10913;51.992;9.228;2023-02-16T03:55:41;101166.50;;;1.16;100.00
21504;BME280;10913;51.992;9.228;2023-02-16T03:58:10;101168.06;;;1.13;100.00
21504;BME280;10913;51.992;9.228;2023-02-16T04:00:35;101164.50;;;1.11;100.00
21504;BME280;10913;51.992;9.228;2023-02-16T04:03:02;101162.66;;;1.08;100.00
21504;BME280;10913;51.992;9.228;2023-02-16T04:05:28;101169.50;;;1.06;100.00
21504;BME280;10913;51.992;9.228;2023-02-16T04:07:53;101153.66;;;1.01;100.00
21504;BME280;10913;51.992;9.228;2023-02-16T04:10:19;101160.53;;;0.99;100.00
21504;BME280;10913;51.992;9.228;2023-02-16T04:12:44;101159.56;;;0.97;100.00
21504;BME280;10913;51.992;9.228;2023-02-16T04:15:15;101154.31;;;0.96;100.00
21504;BME280;10913;51.992;9.228;2023-02-16T04:17:41;101162.94;;;0.95;100.00
21504;BME280;10913;51.992;9.228;2023-02-16T04:20:10;101159.34;;;0.93;100.00
21504;BME280;10913;51.992;9.228;2023-02-16T04:22:37;101158.47;;;0.92;100.00
21504;BME280;10913;51.992;9.228;2023-02-16T04:25:02;101164.50;;;0.91;100.00
21504;BME280;10913;51.992;9.228;2023-02-16T04:27:28;101161.66;;;0.87;100.00
21504;BME280;10913;51.992;9.228;2023-02-16T04:29:53;101159.81;;;0.84;100.00
21504;BME280;10913;51.992;9.228;2023-02-16T04:32:18;101161.44;;;0.82;100.00
21504;BME280;10913;51.992;9.228;2023-02-16T04:34:44;101158.84;;;0.82;100.00
21504;BME280;10913;51.992;9.228;2023-02-16T04:37:09;101158.03;;;0.83;100.00
21504;BME280;10913;51.992;9.228;2023-02-16T04:39:34;101155.38;;;0.82;100.00
21504;BME280;10913;51.992;9.228;2023-02-16T04:42:00;101145.75;;;0.79;100.00
21504;BME280;10913;51.992;9.228;2023-02-16T04:44:25;101150.09;;;0.80;100.00
21504;BME280;10913;51.992;9.228;2023-02-16T04:46:50;101145.66;;;0.78;100.00
21504;BME280;10913;51.992;9.228;2023-02-16T04:49:18;101150.97;;;0.81;100.00
21504;BME280;10913;51.992;9.228;2023-02-16T04:51:44;101145.03;;;0.83;100.00
21504;BME280;10913;51.992;9.228;2023-02-16T04:54:09;101139.69;;;0.80;100.00
21504;BME280;10913;51.992;9.228;2023-02-16T04:56:34;101137.03;;;0.79;100.00
21504;BME280;10913;51.992;9.228;2023-02-16T04:58:59;101135.25;;;0.78;100.00
21504;BME280;10913;51.992;9.228;2023-02-16T05:01:28;101137.94;;;0.79;100.00
21504;BME280;10913;51.992;9.228;2023-02-16T05:03:53;101143.94;;;0.78;100.00
21504;BME280;10913;51.992;9.228;2023-02-16T05:06:19;101145.84;;;0.82;100.00
21504;BME280;10913;51.992;9.228;2023-02-16T05:08:45;101141.47;;;0.81;100.00
21504;BME280;10913;51.992;9.228;2023-02-16T05:11:10;101145.78;;;0.81;100.00
21504;BME280;10913;51.992;9.228;2023-02-16T05:13:56;101143.13;;;0.79;100.00
21504;BME280;10913;51.992;9.228;2023-02-16T05:16:57;101149.16;;;0.78;100.00
21504;BME280;10913;51.992;9.228;2023-02-16T05:19:22;101142.25;;;0.79;100.00
21504;BME280;10913;51.992;9.228;2023-02-16T05:21:47;101146.63;;;0.80;100.00
21504;BME280;10913;51.992;9.228;2023-02-16T05:24:13;101136.25;;;0.81;100.00
21504;BME280;10913;51.992;9.228;2023-02-16T05:26:38;101132.84;;;0.82;100.00
21504;BME280;10913;51.992;9.228;2023-02-16T05:29:04;101145.84;;;0.82;100.00
21504;BME280;10913;51.992;9.228;2023-02-16T05:31:30;101136.25;;;0.81;100.00
21504;BME280;10913;51.992;9.228;2023-02-16T05:33:56;101143.31;;;0.84;100.00
21504;BME280;10913;51.992;9.228;2023-02-16T05:36:22;101136.25;;;0.81;100.00
21504;BME280;10913;51.992;9.228;2023-02-16T05:38:47;101142.44;;;0.83;100.00
21504;BME280;10913;51.992;9.228;2023-02-16T05:41:12;101141.75;;;0.87;100.00
21504;BME280;10913;51.992;9.228;2023-02-16T05:43:51;101144.28;;;0.86;100.00
21504;BME280;10913;51.992;9.228;2023-02-16T05:46:18;101149.50;;;0.86;100.00
21504;BME280;10913;51.992;9.228;2023-02-16T05:48:43;101146.06;;;0.87;100.00
21504;BME280;10913;51.992;9.228;2023-02-16T05:51:08;101145.19;;;0.86;100.00
21504;BME280;10913;51.992;9.228;2023-02-16T05:53:34;101148.59;;;0.85;100.00
21504;BME280;10913;51.992;9.228;2023-02-16T05:55:59;101139.81;;;0.83;100.00
21504;BME280;10913;51.992;9.228;2023-02-16T05:58:24;101151.13;;;0.84;100.00
21504;BME280;10913;51.992;9.228;2023-02-16T06:00:50;101144.22;;;0.84;100.00
21504;BME280;10913;51.992;9.228;2023-02-16T06:03:15;101152.09;;;0.86;100.00
21504;BME280;10913;51.992;9.228;2023-02-16T06:05:40;101148.59;;;0.85;100.00
21504;BME280;10913;51.992;9.228;2023-02-16T06:08:06;101153.88;;;0.87;100.00
21504;BME280;10913;51.992;9.228;2023-02-16T06:10:32;101160.03;;;0.89;100.00
21504;BME280;10913;51.992;9.228;2023-02-16T06:12:57;101158.31;;;0.89;100.00
21504;BME280;10913;51.992;9.228;2023-02-16T06:15:23;101152.31;;;0.90;100.00
21504;BME280;10913;51.992;9.228;2023-02-16T06:17:48;101149.78;;;0.92;100.00
21504;BME280;10913;51.992;9.228;2023-02-16T06:20:13;101149.78;;;0.92;100.00
21504;BME280;10913;51.992;9.228;2023-02-16T06:22:38;101151.56;;;0.93;100.00
21504;BME280;10913;51.992;9.228;2023-02-16T06:25:04;101154.22;;;0.94;100.00
21504;BME280;10913;51.992;9.228;2023-02-16T06:27:29;101149.09;;;0.96;100.00
21504;BME280;10913;51.992;9.228;2023-02-16T06:29:55;101152.53;;;0.95;100.00
21504;BME280;10913;51.992;9.228;2023-02-16T06:32:20;101154.22;;;0.94;100.00
21504;BME280;10913;51.992;9.228;2023-02-16T06:34:46;101154.22;;;0.94;100.00
21504;BME280;10913;51.992;9.228;2023-02-16T06:37:11;101157.06;;;0.99;100.00
21504;BME280;10913;51.992;9.228;2023-02-16T06:39:36;101148.38;;;1.00;100.00
21504;BME280;10913;51.992;9.228;2023-02-16T06:42:02;101162.56;;;1.07;100.00
21504;BME280;10913;51.992;9.228;2023-02-16T06:44:27;101160.88;;;1.07;100.00
21504;BME280;10913;51.992;9.228;2023-02-16T06:46:53;101162.72;;;1.10;100.00
21504;BME280;10913;51.992;9.228;2023-02-16T06:49:19;101156.69;;;1.11;100.00
21504;BME280;10913;51.992;9.228;2023-02-16T06:51:46;101165.47;;;1.13;100.00
21504;BME280;10913;51.992;9.228;2023-02-16T06:54:12;101165.59;;;1.16;100.00
21504;BME280;10913;51.992;9.228;2023-02-16T06:56:38;101167.53;;;1.20;100.00
21504;BME280;10913;51.992;9.228;2023-02-16T06:59:03;101162.56;;;1.26;100.00
21504;BME280;10913;51.992;9.228;2023-02-16T07:01:29;101169.03;;;1.34;100.00
21504;BME280;10913;51.992;9.228;2023-02-16T07:03:56;101175.84;;;1.51;100.00
21504;BME280;10913;51.992;9.228;2023-02-16T07:06:24;101172.53;;;1.75;100.00
21504;BME280;10913;51.992;9.228;2023-02-16T07:08:51;101179.34;;;1.92;100.00
21504;BME280;10913;51.992;9.228;2023-02-16T07:11:17;101179.69;;;1.99;100.00
21504;BME280;10913;51.992;9.228;2023-02-16T07:13:43;101176.53;;;2.08;100.00
21504;BME280;10913;51.992;9.228;2023-02-16T07:16:09;101177.56;;;2.12;100.00
21504;BME280;10913;51.992;9.228;2023-02-16T07:18:35;101179.53;;;2.17;100.00
21504;BME280;10913;51.992;9.228;2023-02-16T07:21:00;101177.22;;;2.25;100.00
21504;BME280;10913;51.992;9.228;2023-02-16T07:23:26;101177.28;;;2.26;100.00
21504;BME280;10913;51.992;9.228;2023-02-16T07:25:51;101177.03;;;2.20;100.00
21504;BME280;10913;51.992;9.228;2023-02-16T07:28:17;101186.69;;;2.23;100.00
21504;BME280;10913;51.992;9.228;2023-02-16T07:30:43;101174.06;;;2.32;100.00
21504;BME280;10913;51.992;9.228;2023-02-16T07:33:09;101166.25;;;2.54;100.00
21504;BME280;10913;51.992;9.228;2023-02-16T07:35:35;101169.22;;;2.86;100.00
21504;BME280;10913;51.992;9.228;2023-02-16T07:38:02;101169.44;;;3.14;100.00
21504;BME280;10913;51.992;9.228;2023-02-16T07:40:27;101171.66;;;3.51;100.00
21504;BME280;10913;51.992;9.228;2023-02-16T07:42:53;101176.06;;;4.03;100.00
21504;BME280;10913;51.992;9.228;2023-02-16T07:45:18;101172.69;;;4.59;99.46
21504;BME280;10913;51.992;9.228;2023-02-16T07:47:44;101176.84;;;5.09;96.51
21504;BME280;10913;51.992;9.228;2023-02-16T07:50:09;101168.09;;;5.70;94.06
21504;BME280;10913;51.992;9.228;2023-02-16T07:52:35;101164.81;;;6.46;91.05
21504;BME280;10913;51.992;9.228;2023-02-16T07:55:01;101166.59;;;6.86;87.28
21504;BME280;10913;51.992;9.228;2023-02-16T07:57:27;101156.19;;;6.91;86.08
21504;BME280;10913;51.992;9.228;2023-02-16T07:59:53;101159.91;;;6.99;86.01
21504;BME280;10913;51.992;9.228;2023-02-16T08:02:19;101152.41;;;7.17;85.41
21504;BME280;10913;51.992;9.228;2023-02-16T08:04:46;101159.97;;;7.46;84.30
21504;BME280;10913;51.992;9.228;2023-02-16T08:07:12;101155.41;;;7.82;82.78
21504;BME280;10913;51.992;9.228;2023-02-16T08:09:38;101152.69;;;8.29;81.23
21504;BME280;10913;51.992;9.228;2023-02-16T08:12:08;101161.38;;;8.76;78.92
21504;BME280;10913;51.992;9.228;2023-02-16T08:14:34;101160.84;;;9.03;78.36
21504;BME280;10913;51.992;9.228;2023-02-16T08:16:59;101161.38;;;9.44;77.62
21504;BME280;10913;51.992;9.228;2023-02-16T08:19:25;101162.63;;;9.77;76.49
21504;BME280;10913;51.992;9.228;2023-02-16T08:21:51;101159.56;;;10.22;74.65
21504;BME280;10913;51.992;9.228;2023-02-16T08:24:16;101160.97;;;10.94;73.36
21504;BME280;10913;51.992;9.228;2023-02-16T08:26:42;101146.22;;;11.51;70.86
21504;BME280;10913;51.992;9.228;2023-02-16T08:29:09;101127.84;;;12.18;69.44
21504;BME280;10913;51.992;9.228;2023-02-16T08:31:37;101131.34;;;12.26;67.45
21504;BME280;10913;51.992;9.228;2023-02-16T08:34:03;101123.41;;;12.35;67.65
21504;BME280;10913;51.992;9.228;2023-02-16T08:36:31;101118.88;;;11.61;68.69
21504;BME280;10913;51.992;9.228;2023-02-16T08:39:00;101133.16;;;9.36;72.47
21504;BME280;10913;51.992;9.228;2023-02-16T08:41:34;101133.94;;;8.09;77.38
21504;BME280;10913;51.992;9.228;2023-02-16T08:44:00;101125.09;;;7.54;80.57
21504;BME280;10913;51.992;9.228;2023-02-16T08:46:27;101135.28;;;6.96;82.88
21504;BME280;10913;51.992;9.228;2023-02-16T08:48:56;101131.75;;;6.54;84.87
21504;BME280;10913;51.992;9.228;2023-02-16T08:51:25;101144.09;;;6.22;86.53
21504;BME280;10913;51.992;9.228;2023-02-16T08:53:51;101133.97;;;6.02;88.24
21504;BME280;10913;51.992;9.228;2023-02-16T08:56:17;101139.50;;;5.79;89.00
21504;BME280;10913;51.992;9.228;2023-02-16T08:58:44;101138.88;;;5.57;90.04
21504;BME280;10913;51.992;9.228;2023-02-16T09:01:10;101152.53;;;5.45;91.11
21504;BME280;10913;51.992;9.228;2023-02-16T09:03:38;101151.34;;;5.34;91.64
21504;BME280;10913;51.992;9.228;2023-02-16T09:06:06;101139.09;;;5.33;92.15
21504;BME280;10913;51.992;9.228;2023-02-16T09:08:32;101151.97;;;5.25;92.22
21504;BME280;10913;51.992;9.228;2023-02-16T09:11:02;101142.88;;;5.12;93.50
21504;BME280;10913;51.992;9.228;2023-02-16T09:13:27;101142.56;;;5.02;94.39
21504;BME280;10913;51.992;9.228;2023-02-16T09:15:53;101132.91;;;5.01;94.49
21504;BME280;10913;51.992;9.228;2023-02-16T09:18:18;101131.84;;;4.93;95.14
21504;BME280;10913;51.992;9.228;2023-02-16T09:20:44;101138.50;;;4.83;95.34
21504;BME280;10913;51.992;9.228;2023-02-16T09:23:09;101132.06;;;4.72;96.88
21504;BME280;10913;51.992;9.228;2023-02-16T09:25:37;101137.03;;;4.63;97.41
21504;BME280;10913;51.992;9.228;2023-02-16T09:28:03;101144.88;;;4.63;97.98
21504;BME280;10913;51.992;9.228;2023-02-16T09:30:29;101143.38;;;4.71;98.05
21504;BME280;10913;51.992;9.228;2023-02-16T09:32:57;101142.75;;;4.78;98.12
21504;BME280;10913;51.992;9.228;2023-02-16T09:35:22;101144.69;;;4.85;98.08
21504;BME280;10913;51.992;9.228;2023-02-16T09:37:48;101150.91;;;4.89;97.74
21504;BME280;10913;51.992;9.228;2023-02-16T09:40:14;101135.53;;;4.99;97.90
21504;BME280;10913;51.992;9.228;2023-02-16T09:42:56;101142.66;;;5.05;97.45
21504;BME280;10913;51.992;9.228;2023-02-16T09:45:25;101142.84;;;5.11;97.64
21504;BME280;10913;51.992;9.228;2023-02-16T09:47:52;101148.25;;;5.17;96.87
21504;BME280;10913;51.992;9.228;2023-02-16T09:50:24;101147.31;;;5.15;96.40
21504;BME280;10913;51.992;9.228;2023-02-16T09:53:06;101139.59;;;5.19;96.45
21504;BME280;10913;51.992;9.228;2023-02-16T09:55:41;101138.72;;;5.20;95.96
21504;BME280;10913;51.992;9.228;2023-02-16T09:58:21;101137.22;;;5.29;96.07
21504;BME280;10913;51.992;9.228;2023-02-16T10:00:51;101132.91;;;5.31;95.93
21504;BME280;10913;51.992;9.228;2023-02-16T10:05:57;101136.72;;;5.42;95.59
21504;BME280;10913;51.992;9.228;2023-02-16T10:08:31;101125.47;;;5.46;95.42
21504;BME280;10913;51.992;9.228;2023-02-16T10:13:40;101125.53;;;5.47;95.52
21504;BME280;10913;51.992;9.228;2023-02-16T10:16:14;101116.44;;;5.35;95.64
21504;BME280;10913;51.992;9.228;2023-02-16T10:18:46;101123.38;;;5.33;95.62
21504;BME280;10913;51.992;9.228;2023-02-16T10:21:19;101119.50;;;5.20;96.32
21504;BME280;10913;51.992;9.228;2023-02-16T10:23:54;101123.00;;;5.20;96.54
21504;BME280;10913;51.992;9.228;2023-02-16T10:26:39;101115.94;;;5.16;97.03
21504;BME280;10913;51.992;9.228;2023-02-16T10:29:12;101115.75;;;5.10;96.61
21504;BME280;10913;51.992;9.228;2023-02-16T10:32:01;101124.38;;;5.06;96.83
21504;BME280;10913;51.992;9.228;2023-02-16T10:42:57;101132.00;;;5.29;96.88
21504;BME280;10913;51.992;9.228;2023-02-16T10:45:50;101138.28;;;5.35;96.68
21504;BME280;10913;51.992;9.228;2023-02-16T10:48:16;101134.03;;;5.40;96.60
21504;BME280;10913;51.992;9.228;2023-02-16T10:51:01;101132.50;;;5.47;96.63
21504;BME280;10913;51.992;9.228;2023-02-16T10:53:34;101129.03;;;5.48;96.91
21504;BME280;10913;51.992;9.228;2023-02-16T10:56:01;101131.06;;;5.58;96.90
21504;BME280;10913;51.992;9.228;2023-02-16T10:58:37;101124.31;;;5.68;97.01
21504;BME280;10913;51.992;9.228;2023-02-16T11:01:16;101124.66;;;5.81;95.70
21504;BME280;10913;51.992;9.228;2023-02-16T11:03:50;101118.13;;;5.97;95.77
21504;BME280;10913;51.992;9.228;2023-02-16T11:06:22;101123.72;;;6.11;94.38
21504;BME280;10913;51.992;9.228;2023-02-16T11:08:52;101122.06;;;6.14;93.20
21504;BME280;10913;51.992;9.228;2023-02-16T11:11:20;101108.25;;;6.23;93.51
21504;BME280;10913;51.992;9.228;2023-02-16T11:13:57;101112.81;;;6.30;93.60
21504;BME280;10913;51.992;9.228;2023-02-16T11:16:23;101106.97;;;6.43;92.99
21504;BME280;10913;51.992;9.228;2023-02-16T11:19:05;101105.50;;;6.54;92.99
21504;BME280;10913;51.992;9.228;2023-02-16T11:21:53;101102.13;;;6.62;91.98
21504;BME280;10913;51.992;9.228;2023-02-16T11:24:35;101099.59;;;6.65;91.38
21504;BME280;10913;51.992;9.228;2023-02-16T11:29:29;101099.19;;;6.87;90.49
21504;BME280;10913;51.992;9.228;2023-02-16T11:31:55;101095.84;;;6.94;90.40
21504;BME280;10913;51.992;9.228;2023-02-16T11:39:39;101084.16;;;7.23;88.25
21504;BME280;10913;51.992;9.228;2023-02-16T11:42:38;101078.97;;;7.26;88.55
21504;BME280;10913;51.992;9.228;2023-02-16T11:45:05;101078.13;;;7.28;88.54
21504;BME280;10913;51.992;9.228;2023-02-16T11:47:36;101079.97;;;7.32;88.52
21504;BME280;10913;51.992;9.228;2023-02-16T11:50:31;101072.19;;;7.38;88.55
21504;BME280;10913;51.992;9.228;2023-02-16T11:55:38;101068.25;;;7.63;87.88
21504;BME280;10913;51.992;9.228;2023-02-16T12:19:47;101048.44;;;9.07;82.14
21504;BME280;10913;51.992;9.228;2023-02-16T12:22:33;101044.06;;;9.07;82.20
21504;BME280;10913;51.992;9.228;2023-02-16T12:37:20;101034.53;;;9.21;82.45
21504;BME280;10913;51.992;9.228;2023-02-16T12:45:02;101011.38;;;9.85;79.82
21504;BME280;10913;51.992;9.228;2023-02-16T12:47:31;101003.47;;;9.84;80.07
21504;BME280;10913;51.992;9.228;2023-02-16T12:50:02;100994.66;;;9.83;80.51
21504;BME280;10913;51.992;9.228;2023-02-16T12:52:40;100996.41;;;9.78;80.29
21504;BME280;10913;51.992;9.228;2023-02-16T12:57:33;100992.81;;;9.70;80.93
21504;BME280;10913;51.992;9.228;2023-02-16T13:00:13;100991.91;;;9.66;80.99
21504;BME280;10913;51.992;9.228;2023-02-16T13:03:03;100987.44;;;9.61;81.10
21504;BME280;10913;51.992;9.228;2023-02-16T13:05:36;100992.69;;;9.55;81.54
21504;BME280;10913;51.992;9.228;2023-02-16T13:13:37;100980.41;;;9.57;82.01
21504;BME280;10913;51.992;9.228;2023-02-16T13:16:16;100978.66;;;9.62;82.41
21504;BME280;10913;51.992;9.228;2023-02-16T13:18:46;100982.22;;;9.67;81.97
21504;BME280;10913;51.992;9.228;2023-02-16T13:21:36;100974.31;;;9.67;81.95
21504;BME280;10913;51.992;9.228;2023-02-16T13:25:05;100980.50;;;9.72;81.84
21504;BME280;10913;51.992;9.228;2023-02-16T13:30:21;100967.44;;;9.87;80.99
21504;BME280;10913;51.992;9.228;2023-02-16T13:39:05;100974.53;;;10.00;81.36
21504;BME280;10913;51.992;9.228;2023-02-16T13:42:13;100964.88;;;10.02;81.39
21504;BME280;10913;51.992;9.228;2023-02-16T13:44:42;100947.31;;;10.06;81.80
21504;BME280;10913;51.992;9.228;2023-02-16T13:47:17;100944.69;;;10.11;80.77
21504;BME280;10913;51.992;9.228;2023-02-16T13:49:44;100937.69;;;10.14;80.95
21504;BME280;10913;51.992;9.228;2023-02-16T13:52:32;100937.59;;;10.03;80.48
21504;BME280;10913;51.992;9.228;2023-02-16T13:55:00;100936.75;;;10.06;81.14
21504;BME280;10913;51.992;9.228;2023-02-16T14:05:25;100929.81;;;10.19;81.85
21504;BME280;10913;51.992;9.228;2023-02-16T14:08:25;100916.63;;;10.25;81.42
21504;BME280;10913;51.992;9.228;2023-02-16T14:15:55;100905.25;;;10.38;80.27
21504;BME280;10913;51.992;9.228;2023-02-16T14:18:36;100906.13;;;10.35;80.57
21504;BME280;10913;51.992;9.228;2023-02-16T14:21:14;100902.63;;;10.37;80.75
21504;BME280;10913;51.992;9.228;2023-02-16T14:23:40;100906.13;;;10.35;81.27
21504;BME280;10913;51.992;9.228;2023-02-16T14:26:07;100906.09;;;10.29;81.28
21504;BME280;10913;51.992;9.228;2023-02-16T14:28:57;100894.59;;;10.23;81.37
21504;BME280;10913;51.992;9.228;2023-02-16T14:31:26;100878.75;;;10.20;82.18
21504;BME280;10913;51.992;9.228;2023-02-16T14:34:02;100877.00;;;10.22;82.35
21504;BME280;10913;51.992;9.228;2023-02-16T14:36:30;100867.25;;;10.09;82.78
21504;BME280;10913;51.992;9.228;2023-02-16T14:38:57;100866.34;;;10.07;83.23
21504;BME280;10913;51.992;9.228;2023-02-16T14:41:27;100865.47;;;10.06;83.30
21504;BME280;10913;51.992;9.228;2023-02-16T14:57:41;100858.34;;;9.90;83.56
21504;BME280;10913;51.992;9.228;2023-02-16T15:05:32;100875.00;;;9.81;84.43
21504;BME280;10913;51.992;9.228;2023-02-16T15:08:12;100887.34;;;9.82;84.50
21504;BME280;10913;51.992;9.228;2023-02-16T15:10:41;100892.59;;;9.79;84.52
21504;BME280;10913;51.992;9.228;2023-02-16T15:13:18;100897.00;;;9.77;84.65
21504;BME280;10913;51.992;9.228;2023-02-16T15:15:49;100896.09;;;9.75;84.65
21504;BME280;10913;51.992;9.228;2023-02-16T15:18:21;100891.69;;;9.74;84.90
21504;BME280;10913;51.992;9.228;2023-02-16T15:20:49;100892.59;;;9.79;85.16
21504;BME280;10913;51.992;9.228;2023-02-16T15:23:22;100891.75;;;9.83;85.53
21504;BME280;10913;51.992;9.228;2023-02-16T15:28:21;100881.25;;;9.94;86.10
21504;BME280;10913;51.992;9.228;2023-02-16T15:30:56;100881.28;;;9.95;86.46
21504;BME280;10913;51.992;9.228;2023-02-16T15:36:00;100883.03;;;9.95;86.61
21504;BME280;10913;51.992;9.228;2023-02-16T15:38:33;100890.03;;;9.90;86.82
21504;BME280;10913;51.992;9.228;2023-02-16T15:41:02;100889.13;;;9.86;86.38
21504;BME280;10913;51.992;9.228;2023-02-16T15:43:33;100882.06;;;9.85;86.74